Baptistown, New Jersey
Current Conditions -  °F | °C
As of 11:14 AM on Monday 26 Jan 2015 (Local Time) from KDYL Reporting Station
Light Snow Light Snow  
Wind Chill: 11°   Ceiling: 1400
Heat Index: 22°   Visibility: 5mi
Dew Point: 18°   Wind: 10mph
Humidity: 85%   Direction: 40°NE
Pressure: 29.88"   Gusts: NA
Location:  40.52°N, 75.01°W
Report Text: KDYL 261614Z AUTO 04009KT 5SM -SN BR BKN014 BKN028 OVC032 M06/M08 A2988 RMK AO2 P0000 T10561078
Loading
Personal Weather Stations






























Interactive Weather Map New forecast layout! Learn more

10-Day Weather Forecast

Advertisements
Track Severe Weather on mobile